sensor_id;sensor_type;location;lat;lon;timestamp;temperature;humidity
14210;DHT22;7188;56.070;12.698;2022-11-15T00:00:09;8.60;1.00
14210;DHT22;7188;56.070;12.698;2022-11-15T00:02:35;8.60;1.00
14210;DHT22;7188;56.070;12.698;2022-11-15T00:05:00;8.60;1.00
14210;DHT22;7188;56.070;12.698;2022-11-15T00:07:26;8.70;1.00
14210;DHT22;7188;56.070;12.698;2022-11-15T00:09:52;8.70;1.00
14210;DHT22;7188;56.070;12.698;2022-11-15T00:12:17;8.70;1.00
14210;DHT22;7188;56.070;12.698;2022-11-15T00:14:43;8.70;1.00
14210;DHT22;7188;56.070;12.698;2022-11-15T00:17:08;8.70;1.00
14210;DHT22;7188;56.070;12.698;2022-11-15T00:19:34;8.70;1.00
14210;DHT22;7188;56.070;12.698;2022-11-15T00:22:00;8.70;1.00
14210;DHT22;7188;56.070;12.698;2022-11-15T00:24:25;8.70;1.00
14210;DHT22;7188;56.070;12.698;2022-11-15T00:26:51;8.70;1.00
14210;DHT22;7188;56.070;12.698;2022-11-15T00:29:17;8.70;1.00
14210;DHT22;7188;56.070;12.698;2022-11-15T00:31:42;8.70;1.00
14210;DHT22;7188;56.070;12.698;2022-11-15T00:34:09;8.70;1.00
14210;DHT22;7188;56.070;12.698;2022-11-15T00:36:35;8.70;1.00
14210;DHT22;7188;56.070;12.698;2022-11-15T00:39:00;8.70;1.00
14210;DHT22;7188;56.070;12.698;2022-11-15T00:41:26;8.70;1.00
14210;DHT22;7188;56.070;12.698;2022-11-15T00:43:51;8.70;1.00
14210;DHT22;7188;56.070;12.698;2022-11-15T00:46:17;8.70;1.00
14210;DHT22;7188;56.070;12.698;2022-11-15T00:48:43;8.70;1.00
14210;DHT22;7188;56.070;12.698;2022-11-15T00:51:08;8.60;1.00
14210;DHT22;7188;56.070;12.698;2022-11-15T00:53:34;8.60;1.00
14210;DHT22;7188;56.070;12.698;2022-11-15T00:56:00;8.60;1.00
14210;DHT22;7188;56.070;12.698;2022-11-15T00:58:25;8.60;1.00
14210;DHT22;7188;56.070;12.698;2022-11-15T01:00:51;8.60;1.00
14210;DHT22;7188;56.070;12.698;2022-11-15T01:03:16;8.60;1.00
14210;DHT22;7188;56.070;12.698;2022-11-15T01:05:42;8.60;1.00
14210;DHT22;7188;56.070;12.698;2022-11-15T01:08:13;8.70;1.00
14210;DHT22;7188;56.070;12.698;2022-11-15T01:10:39;8.70;1.00
14210;DHT22;7188;56.070;12.698;2022-11-15T01:13:04;8.70;1.00
14210;DHT22;7188;56.070;12.698;2022-11-15T01:15:30;8.70;1.00
14210;DHT22;7188;56.070;12.698;2022-11-15T01:17:55;8.70;1.00
14210;DHT22;7188;56.070;12.698;2022-11-15T01:20:21;8.70;1.00
14210;DHT22;7188;56.070;12.698;2022-11-15T01:22:47;8.80;1.00
14210;DHT22;7188;56.070;12.698;2022-11-15T01:25:12;8.80;1.00
14210;DHT22;7188;56.070;12.698;2022-11-15T01:27:38;8.80;1.00
14210;DHT22;7188;56.070;12.698;2022-11-15T01:30:04;8.80;1.00
14210;DHT22;7188;56.070;12.698;2022-11-15T01:32:30;8.80;1.00
14210;DHT22;7188;56.070;12.698;2022-11-15T01:34:55;8.90;1.00
14210;DHT22;7188;56.070;12.698;2022-11-15T01:37:21;8.80;99.90
14210;DHT22;7188;56.070;12.698;2022-11-15T01:39:46;8.90;99.90
14210;DHT22;7188;56.070;12.698;2022-11-15T01:42:13;8.90;99.90
14210;DHT22;7188;56.070;12.698;2022-11-15T01:44:49;8.90;99.90
14210;DHT22;7188;56.070;12.698;2022-11-15T01:47:17;8.90;99.90
14210;DHT22;7188;56.070;12.698;2022-11-15T01:52:26;9.00;99.90
14210;DHT22;7188;56.070;12.698;2022-11-15T01:55:07;9.00;99.90
14210;DHT22;7188;56.070;12.698;2022-11-15T01:57:34;9.00;99.90
14210;DHT22;7188;56.070;12.698;2022-11-15T02:00:00;9.00;99.90
14210;DHT22;7188;56.070;12.698;2022-11-15T02:02:27;9.00;99.90
14210;DHT22;7188;56.070;12.698;2022-11-15T02:04:52;9.00;99.90
14210;DHT22;7188;56.070;12.698;2022-11-15T02:07:20;9.00;99.90
14210;DHT22;7188;56.070;12.698;2022-11-15T02:09:46;9.00;99.90
14210;DHT22;7188;56.070;12.698;2022-11-15T02:12:15;9.00;99.90
14210;DHT22;7188;56.070;12.698;2022-11-15T02:14:48;9.00;99.90
14210;DHT22;7188;56.070;12.698;2022-11-15T02:31:36;9.10;19.40
14210;DHT22;7188;56.070;12.698;2022-11-15T02:39:41;9.00;1.00
14210;DHT22;7188;56.070;12.698;2022-11-15T02:42:21;9.00;1.00
14210;DHT22;7188;56.070;12.698;2022-11-15T02:45:10;9.10;1.00
14210;DHT22;7188;56.070;12.698;2022-11-15T02:47:48;9.00;1.00
14210;DHT22;7188;56.070;12.698;2022-11-15T02:50:21;9.00;1.00
14210;DHT22;7188;56.070;12.698;2022-11-15T02:52:49;9.00;24.90
14210;DHT22;7188;56.070;12.698;2022-11-15T02:55:37;9.00;1.00
14210;DHT22;7188;56.070;12.698;2022-11-15T02:58:30;9.10;99.90
14210;DHT22;7188;56.070;12.698;2022-11-15T03:03:31;9.10;1.00
14210;DHT22;7188;56.070;12.698;2022-11-15T03:09:09;9.00;1.00
14210;DHT22;7188;56.070;12.698;2022-11-15T03:11:44;9.00;1.00
14210;DHT22;7188;56.070;12.698;2022-11-15T03:14:26;9.10;1.00
14210;DHT22;7188;56.070;12.698;2022-11-15T03:19:47;9.00;99.90
14210;DHT22;7188;56.070;12.698;2022-11-15T03:22:17;9.00;99.90
14210;DHT22;7188;56.070;12.698;2022-11-15T03:24:45;9.00;99.90
14210;DHT22;7188;56.070;12.698;2022-11-15T03:27:14;9.00;99.90
14210;DHT22;7188;56.070;12.698;2022-11-15T03:29:46;9.00;99.90
14210;DHT22;7188;56.070;12.698;2022-11-15T03:32:17;9.00;99.90
14210;DHT22;7188;56.070;12.698;2022-11-15T03:37:14;9.00;99.90
14210;DHT22;7188;56.070;12.698;2022-11-15T03:39:40;9.00;99.90
14210;DHT22;7188;56.070;12.698;2022-11-15T03:42:22;9.00;99.90
14210;DHT22;7188;56.070;12.698;2022-11-15T03:45:13;9.00;99.90
14210;DHT22;7188;56.070;12.698;2022-11-15T03:47:43;9.10;1.00
14210;DHT22;7188;56.070;12.698;2022-11-15T03:50:20;9.10;99.90
14210;DHT22;7188;56.070;12.698;2022-11-15T03:52:47;9.10;99.90
14210;DHT22;7188;56.070;12.698;2022-11-15T03:55:17;9.00;99.90
14210;DHT22;7188;56.070;12.698;2022-11-15T03:57:43;9.00;99.90
14210;DHT22;7188;56.070;12.698;2022-11-15T04:00:09;9.00;99.90
14210;DHT22;7188;56.070;12.698;2022-11-15T04:02:35;9.00;99.90
14210;DHT22;7188;56.070;12.698;2022-11-15T04:05:01;9.00;99.90
14210;DHT22;7188;56.070;12.698;2022-11-15T04:07:42;9.00;99.90
14210;DHT22;7188;56.070;12.698;2022-11-15T04:10:12;9.00;99.90
14210;DHT22;7188;56.070;12.698;2022-11-15T04:12:40;9.00;99.90
14210;DHT22;7188;56.070;12.698;2022-11-15T04:15:11;9.00;99.90
14210;DHT22;7188;56.070;12.698;2022-11-15T04:20:19;8.90;99.90
14210;DHT22;7188;56.070;12.698;2022-11-15T04:23:06;9.00;99.90
14210;DHT22;7188;56.070;12.698;2022-11-15T04:25:52;9.00;99.90
14210;DHT22;7188;56.070;12.698;2022-11-15T04:28:19;8.90;99.90
14210;DHT22;7188;56.070;12.698;2022-11-15T04:30:45;8.90;99.90
14210;DHT22;7188;56.070;12.698;2022-11-15T04:33:11;8.90;99.90
14210;DHT22;7188;56.070;12.698;2022-11-15T04:35:36;8.90;99.90
14210;DHT22;7188;56.070;12.698;2022-11-15T04:38:04;8.90;99.90
14210;DHT22;7188;56.070;12.698;2022-11-15T04:40:30;8.90;99.90
14210;DHT22;7188;56.070;12.698;2022-11-15T04:42:56;8.90;99.90
14210;DHT22;7188;56.070;12.698;2022-11-15T04:45:22;8.80;26.50
14210;DHT22;7188;56.070;12.698;2022-11-15T04:47:47;8.90;99.90
14210;DHT22;7188;56.070;12.698;2022-11-15T04:50:14;8.90;99.90
14210;DHT22;7188;56.070;12.698;2022-11-15T04:52:51;8.90;99.90
14210;DHT22;7188;56.070;12.698;2022-11-15T04:55:17;9.00;99.90
14210;DHT22;7188;56.070;12.698;2022-11-15T04:57:42;9.00;99.90
14210;DHT22;7188;56.070;12.698;2022-11-15T05:00:10;9.00;81.50
14210;DHT22;7188;56.070;12.698;2022-11-15T05:02:36;8.90;1.00
14210;DHT22;7188;56.070;12.698;2022-11-15T05:05:21;9.00;99.90
14210;DHT22;7188;56.070;12.698;2022-11-15T05:07:47;8.90;1.00
14210;DHT22;7188;56.070;12.698;2022-11-15T05:10:12;8.90;1.00
14210;DHT22;7188;56.070;12.698;2022-11-15T05:12:38;8.90;1.00
14210;DHT22;7188;56.070;12.698;2022-11-15T05:15:04;8.90;9.60
14210;DHT22;7188;56.070;12.698;2022-11-15T05:17:30;8.90;61.20
14210;DHT22;7188;56.070;12.698;2022-11-15T05:19:56;8.90;1.00
14210;DHT22;7188;56.070;12.698;2022-11-15T05:22:21;8.90;46.50
14210;DHT22;7188;56.070;12.698;2022-11-15T05:24:47;8.90;1.00
14210;DHT22;7188;56.070;12.698;2022-11-15T05:27:12;8.90;1.00
14210;DHT22;7188;56.070;12.698;2022-11-15T05:29:38;8.90;1.00
14210;DHT22;7188;56.070;12.698;2022-11-15T05:32:05;8.90;1.00
14210;DHT22;7188;56.070;12.698;2022-11-15T05:34:31;8.90;1.00
14210;DHT22;7188;56.070;12.698;2022-11-15T05:36:57;8.90;1.00
14210;DHT22;7188;56.070;12.698;2022-11-15T05:39:23;8.90;1.00
14210;DHT22;7188;56.070;12.698;2022-11-15T05:41:57;8.90;1.00
14210;DHT22;7188;56.070;12.698;2022-11-15T05:44:25;8.90;1.00
14210;DHT22;7188;56.070;12.698;2022-11-15T05:46:53;8.90;1.00
14210;DHT22;7188;56.070;12.698;2022-11-15T05:49:25;8.90;1.00
14210;DHT22;7188;56.070;12.698;2022-11-15T05:51:52;8.90;1.00
14210;DHT22;7188;56.070;12.698;2022-11-15T05:54:19;8.90;1.00
14210;DHT22;7188;56.070;12.698;2022-11-15T05:56:45;9.00;1.00
14210;DHT22;7188;56.070;12.698;2022-11-15T05:59:11;9.00;1.00
14210;DHT22;7188;56.070;12.698;2022-11-15T06:01:37;9.00;1.00
14210;DHT22;7188;56.070;12.698;2022-11-15T06:04:03;8.90;1.00
14210;DHT22;7188;56.070;12.698;2022-11-15T06:06:29;8.90;1.00
14210;DHT22;7188;56.070;12.698;2022-11-15T06:08:55;8.90;1.00
14210;DHT22;7188;56.070;12.698;2022-11-15T06:11:20;8.90;1.00
14210;DHT22;7188;56.070;12.698;2022-11-15T06:13:46;8.90;1.00
14210;DHT22;7188;56.070;12.698;2022-11-15T06:16:11;8.90;1.00
14210;DHT22;7188;56.070;12.698;2022-11-15T06:18:38;8.90;1.00
14210;DHT22;7188;56.070;12.698;2022-11-15T06:21:04;8.90;1.00
14210;DHT22;7188;56.070;12.698;2022-11-15T06:23:34;8.90;1.00
14210;DHT22;7188;56.070;12.698;2022-11-15T06:26:01;8.90;1.00
14210;DHT22;7188;56.070;12.698;2022-11-15T06:28:31;8.90;1.00
14210;DHT22;7188;56.070;12.698;2022-11-15T06:31:05;8.80;1.00
14210;DHT22;7188;56.070;12.698;2022-11-15T06:33:30;8.80;99.90
14210;DHT22;7188;56.070;12.698;2022-11-15T06:36:00;8.90;1.00
14210;DHT22;7188;56.070;12.698;2022-11-15T06:38:26;8.90;1.00
14210;DHT22;7188;56.070;12.698;2022-11-15T06:40:52;8.90;1.00
14210;DHT22;7188;56.070;12.698;2022-11-15T06:43:17;8.80;99.90
14210;DHT22;7188;56.070;12.698;2022-11-15T06:45:43;8.80;99.90
14210;DHT22;7188;56.070;12.698;2022-11-15T06:48:08;8.80;99.90
14210;DHT22;7188;56.070;12.698;2022-11-15T06:50:34;8.90;99.90
14210;DHT22;7188;56.070;12.698;2022-11-15T06:53:08;8.90;99.90
14210;DHT22;7188;56.070;12.698;2022-11-15T06:55:34;8.90;99.90
14210;DHT22;7188;56.070;12.698;2022-11-15T06:57:59;8.90;99.90
14210;DHT22;7188;56.070;12.698;2022-11-15T07:00:25;8.90;1.00
14210;DHT22;7188;56.070;12.698;2022-11-15T07:02:50;8.90;1.00
14210;DHT22;7188;56.070;12.698;2022-11-15T07:05:17;8.90;99.90
14210;DHT22;7188;56.070;12.698;2022-11-15T07:07:42;8.90;99.90
14210;DHT22;7188;56.070;12.698;2022-11-15T07:10:08;8.90;99.90
14210;DHT22;7188;56.070;12.698;2022-11-15T07:12:34;8.90;99.90
14210;DHT22;7188;56.070;12.698;2022-11-15T07:15:00;8.90;99.90
14210;DHT22;7188;56.070;12.698;2022-11-15T07:17:25;8.90;99.90
14210;DHT22;7188;56.070;12.698;2022-11-15T07:19:51;8.90;99.90
14210;DHT22;7188;56.070;12.698;2022-11-15T07:22:16;8.90;99.90
14210;DHT22;7188;56.070;12.698;2022-11-15T07:24:42;8.90;99.90
14210;DHT22;7188;56.070;12.698;2022-11-15T07:27:08;8.90;99.90
14210;DHT22;7188;56.070;12.698;2022-11-15T07:29:33;8.90;99.90
14210;DHT22;7188;56.070;12.698;2022-11-15T07:31:59;8.90;99.90
14210;DHT22;7188;56.070;12.698;2022-11-15T07:34:24;8.90;99.90
14210;DHT22;7188;56.070;12.698;2022-11-15T07:36:50;8.90;80.90
14210;DHT22;7188;56.070;12.698;2022-11-15T07:39:15;8.90;1.00
14210;DHT22;7188;56.070;12.698;2022-11-15T07:41:41;8.90;1.00
14210;DHT22;7188;56.070;12.698;2022-11-15T07:44:08;8.90;1.00
14210;DHT22;7188;56.070;12.698;2022-11-15T07:46:34;8.80;1.00
14210;DHT22;7188;56.070;12.698;2022-11-15T07:49:00;8.80;1.00
14210;DHT22;7188;56.070;12.698;2022-11-15T07:51:25;8.80;1.00
14210;DHT22;7188;56.070;12.698;2022-11-15T07:53:51;8.90;1.00
14210;DHT22;7188;56.070;12.698;2022-11-15T07:56:16;8.80;1.00
14210;DHT22;7188;56.070;12.698;2022-11-15T07:58:42;8.80;1.00
14210;DHT22;7188;56.070;12.698;2022-11-15T08:01:09;8.90;1.00
14210;DHT22;7188;56.070;12.698;2022-11-15T08:03:35;8.90;1.00
14210;DHT22;7188;56.070;12.698;2022-11-15T08:06:02;8.90;1.00
14210;DHT22;7188;56.070;12.698;2022-11-15T08:08:27;8.90;99.90
14210;DHT22;7188;56.070;12.698;2022-11-15T08:10:54;8.90;99.90
14210;DHT22;7188;56.070;12.698;2022-11-15T08:13:20;8.90;99.90
14210;DHT22;7188;56.070;12.698;2022-11-15T08:15:46;8.90;99.90
14210;DHT22;7188;56.070;12.698;2022-11-15T08:18:16;8.90;99.90
14210;DHT22;7188;56.070;12.698;2022-11-15T08:20:43;9.00;1.00
14210;DHT22;7188;56.070;12.698;2022-11-15T08:23:11;9.00;1.00
14210;DHT22;7188;56.070;12.698;2022-11-15T08:25:37;9.00;1.00
14210;DHT22;7188;56.070;12.698;2022-11-15T08:28:05;9.00;99.90
14210;DHT22;7188;56.070;12.698;2022-11-15T08:30:35;9.00;1.00
14210;DHT22;7188;56.070;12.698;2022-11-15T08:33:02;9.10;1.00
14210;DHT22;7188;56.070;12.698;2022-11-15T08:35:28;9.10;99.90
14210;DHT22;7188;56.070;12.698;2022-11-15T08:37:54;9.10;99.90
14210;DHT22;7188;56.070;12.698;2022-11-15T08:40:25;9.10;99.90
14210;DHT22;7188;56.070;12.698;2022-11-15T08:42:52;9.10;1.00
14210;DHT22;7188;56.070;12.698;2022-11-15T08:45:17;9.10;99.90
14210;DHT22;7188;56.070;12.698;2022-11-15T08:47:43;9.10;99.90
14210;DHT22;7188;56.070;12.698;2022-11-15T08:50:09;9.20;1.00
14210;DHT22;7188;56.070;12.698;2022-11-15T08:52:34;9.20;99.90
14210;DHT22;7188;56.070;12.698;2022-11-15T08:55:00;9.20;1.00
14210;DHT22;7188;56.070;12.698;2022-11-15T08:57:28;9.20;99.90
14210;DHT22;7188;56.070;12.698;2022-11-15T08:59:55;9.20;99.90
14210;DHT22;7188;56.070;12.698;2022-11-15T09:02:21;9.20;99.90
14210;DHT22;7188;56.070;12.698;2022-11-15T09:04:47;9.20;1.00
14210;DHT22;7188;56.070;12.698;2022-11-15T09:07:13;9.30;99.90
14210;DHT22;7188;56.070;12.698;2022-11-15T09:09:39;9.30;99.90
14210;DHT22;7188;56.070;12.698;2022-11-15T09:12:06;9.30;99.90
14210;DHT22;7188;56.070;12.698;2022-11-15T09:14:33;9.30;99.90
14210;DHT22;7188;56.070;12.698;2022-11-15T09:17:00;9.30;99.90
14210;DHT22;7188;56.070;12.698;2022-11-15T09:19:26;9.30;99.90
14210;DHT22;7188;56.070;12.698;2022-11-15T09:21:52;9.40;99.90
14210;DHT22;7188;56.070;12.698;2022-11-15T09:24:18;9.40;99.90
14210;DHT22;7188;56.070;12.698;2022-11-15T09:26:43;9.40;99.90
14210;DHT22;7188;56.070;12.698;2022-11-15T09:29:09;9.40;57.50
14210;DHT22;7188;56.070;12.698;2022-11-15T09:31:35;9.40;99.90
14210;DHT22;7188;56.070;12.698;2022-11-15T09:34:00;9.40;99.90
14210;DHT22;7188;56.070;12.698;2022-11-15T09:36:26;9.40;99.90
14210;DHT22;7188;56.070;12.698;2022-11-15T09:38:52;9.50;99.90
14210;DHT22;7188;56.070;12.698;2022-11-15T09:41:48;9.50;99.90
14210;DHT22;7188;56.070;12.698;2022-11-15T09:49:15;9.50;1.00
14210;DHT22;7188;56.070;12.698;2022-11-15T09:51:47;9.60;1.00
14210;DHT22;7188;56.070;12.698;2022-11-15T09:57:11;9.70;1.00
14210;DHT22;7188;56.070;12.698;2022-11-15T10:02:53;9.70;1.00
14210;DHT22;7188;56.070;12.698;2022-11-15T10:05:23;9.70;1.00
14210;DHT22;7188;56.070;12.698;2022-11-15T10:10:45;9.70;1.00
14210;DHT22;7188;56.070;12.698;2022-11-15T10:13:31;9.70;1.00
14210;DHT22;7188;56.070;12.698;2022-11-15T10:24:01;9.80;1.00
14210;DHT22;7188;56.070;12.698;2022-11-15T10:26:26;9.80;99.90
14210;DHT22;7188;56.070;12.698;2022-11-15T10:28:53;9.80;99.90
14210;DHT22;7188;56.070;12.698;2022-11-15T10:31:27;9.90;99.90
14210;DHT22;7188;56.070;12.698;2022-11-15T10:34:22;9.90;99.90
14210;DHT22;7188;56.070;12.698;2022-11-15T10:36:58;9.90;1.00
14210;DHT22;7188;56.070;12.698;2022-11-15T10:39:25;9.90;99.90
14210;DHT22;7188;56.070;12.698;2022-11-15T10:41:51;9.90;99.90
14210;DHT22;7188;56.070;12.698;2022-11-15T10:49:30;10.00;99.90
14210;DHT22;7188;56.070;12.698;2022-11-15T10:51:57;10.10;99.90
14210;DHT22;7188;56.070;12.698;2022-11-15T10:54:28;10.10;99.90
14210;DHT22;7188;56.070;12.698;2022-11-15T10:56:57;10.10;99.90
14210;DHT22;7188;56.070;12.698;2022-11-15T10:59:29;10.10;99.90
14210;DHT22;7188;56.070;12.698;2022-11-15T11:01:56;10.20;99.90
14210;DHT22;7188;56.070;12.698;2022-11-15T11:04:21;10.10;99.90
14210;DHT22;7188;56.070;12.698;2022-11-15T11:06:59;10.10;99.90
14210;DHT22;7188;56.070;12.698;2022-11-15T11:09:36;10.10;99.90
14210;DHT22;7188;56.070;12.698;2022-11-15T11:12:09;10.10;1.00
14210;DHT22;7188;56.070;12.698;2022-11-15T11:14:36;10.20;99.90
14210;DHT22;7188;56.070;12.698;2022-11-15T11:17:03;10.20;1.00
14210;DHT22;7188;56.070;12.698;2022-11-15T11:19:46;10.20;1.00
14210;DHT22;7188;56.070;12.698;2022-11-15T11:22:22;10.20;1.00
14210;DHT22;7188;56.070;12.698;2022-11-15T11:28:03;10.20;1.00
14210;DHT22;7188;56.070;12.698;2022-11-15T11:33:24;10.10;1.00
14210;DHT22;7188;56.070;12.698;2022-11-15T11:38:57;10.00;99.90
14210;DHT22;7188;56.070;12.698;2022-11-15T11:41:42;10.00;99.90
14210;DHT22;7188;56.070;12.698;2022-11-15T11:46:56;10.00;99.90
14210;DHT22;7188;56.070;12.698;2022-11-15T11:49:43;10.10;99.90
14210;DHT22;7188;56.070;12.698;2022-11-15T11:52:25;10.10;99.90
14210;DHT22;7188;56.070;12.698;2022-11-15T11:55:12;10.10;89.60
14210;DHT22;7188;56.070;12.698;2022-11-15T12:00:51;10.00;99.90
14210;DHT22;7188;56.070;12.698;2022-11-15T12:03:34;10.10;99.90
14210;DHT22;7188;56.070;12.698;2022-11-15T12:11:49;10.00;99.90
14210;DHT22;7188;56.070;12.698;2022-11-15T12:14:46;9.90;99.90
14210;DHT22;7188;56.070;12.698;2022-11-15T12:17:13;10.00;1.00
14210;DHT22;7188;56.070;12.698;2022-11-15T12:19:40;9.90;99.90
14210;DHT22;7188;56.070;12.698;2022-11-15T12:22:20;9.90;1.00
14210;DHT22;7188;56.070;12.698;2022-11-15T12:30:12;9.90;99.90
14210;DHT22;7188;56.070;12.698;2022-11-15T12:32:39;9.90;99.90
14210;DHT22;7188;56.070;12.698;2022-11-15T12:35:32;9.90;99.90
14210;DHT22;7188;56.070;12.698;2022-11-15T12:37:59;9.90;1.00
14210;DHT22;7188;56.070;12.698;2022-11-15T12:40:39;9.90;1.00
14210;DHT22;7188;56.070;12.698;2022-11-15T12:43:41;9.90;1.00
14210;DHT22;7188;56.070;12.698;2022-11-15T13:04:42;9.90;1.00
14210;DHT22;7188;56.070;12.698;2022-11-15T13:10:00;10.00;1.00
14210;DHT22;7188;56.070;12.698;2022-11-15T13:14:57;9.90;1.00
14210;DHT22;7188;56.070;12.698;2022-11-15T13:17:33;10.00;99.90
14210;DHT22;7188;56.070;12.698;2022-11-15T13:30:35;10.00;1.00
14210;DHT22;7188;56.070;12.698;2022-11-15T13:33:09;10.00;99.90
14210;DHT22;7188;56.070;12.698;2022-11-15T13:35:39;9.90;99.90
14210;DHT22;7188;56.070;12.698;2022-11-15T13:38:05;9.90;99.90
14210;DHT22;7188;56.070;12.698;2022-11-15T13:40:36;9.90;99.90
14210;DHT22;7188;56.070;12.698;2022-11-15T13:48:50;9.90;47.90
14210;DHT22;7188;56.070;12.698;2022-11-15T13:51:25;9.90;97.30
14210;DHT22;7188;56.070;12.698;2022-11-15T13:54:00;9.90;99.90
14210;DHT22;7188;56.070;12.698;2022-11-15T13:56:28;9.90;99.90
14210;DHT22;7188;56.070;12.698;2022-11-15T13:58:54;9.90;41.60
14210;DHT22;7188;56.070;12.698;2022-11-15T14:01:21;9.90;85.30
14210;DHT22;7188;56.070;12.698;2022-11-15T14:03:56;9.90;2.00
14210;DHT22;7188;56.070;12.698;2022-11-15T14:06:24;9.90;99.90
14210;DHT22;7188;56.070;12.698;2022-11-15T14:11:34;9.90;99.90
14210;DHT22;7188;56.070;12.698;2022-11-15T14:16:51;9.90;73.20
14210;DHT22;7188;56.070;12.698;2022-11-15T14:19:38;9.90;99.90
14210;DHT22;7188;56.070;12.698;2022-11-15T14:22:21;9.90;99.90
14210;DHT22;7188;56.070;12.698;2022-11-15T14:25:15;9.90;99.90
14210;DHT22;7188;56.070;12.698;2022-11-15T14:27:43;9.90;99.90
14210;DHT22;7188;56.070;12.698;2022-11-15T14:30:16;9.80;99.90
14210;DHT22;7188;56.070;12.698;2022-11-15T14:35:16;9.80;99.90
14210;DHT22;7188;56.070;12.698;2022-11-15T14:37:42;9.80;1.00
14210;DHT22;7188;56.070;12.698;2022-11-15T14:40:19;9.80;99.90
14210;DHT22;7188;56.070;12.698;2022-11-15T14:42:46;9.80;99.90
14210;DHT22;7188;56.070;12.698;2022-11-15T14:45:14;9.80;99.90
14210;DHT22;7188;56.070;12.698;2022-11-15T14:47:41;9.80;99.90
14210;DHT22;7188;56.070;12.698;2022-11-15T14:50:10;9.80;99.90
14210;DHT22;7188;56.070;12.698;2022-11-15T14:52:36;9.80;99.90
14210;DHT22;7188;56.070;12.698;2022-11-15T14:55:03;9.80;99.90
14210;DHT22;7188;56.070;12.698;2022-11-15T14:57:30;9.80;99.90
14210;DHT22;7188;56.070;12.698;2022-11-15T14:59:56;9.90;99.90
14210;DHT22;7188;56.070;12.698;2022-11-15T15:02:24;9.80;99.90
14210;DHT22;7188;56.070;12.698;2022-11-15T15:04:50;9.80;99.90
14210;DHT22;7188;56.070;12.698;2022-11-15T15:07:16;9.80;99.90
14210;DHT22;7188;56.070;12.698;2022-11-15T15:09:43;9.80;99.90
14210;DHT22;7188;56.070;12.698;2022-11-15T15:12:17;9.80;99.90
14210;DHT22;7188;56.070;12.698;2022-11-15T15:14:43;9.70;99.90
14210;DHT22;7188;56.070;12.698;2022-11-15T15:17:09;9.80;1.00
14210;DHT22;7188;56.070;12.698;2022-11-15T15:19:34;9.80;1.00
14210;DHT22;7188;56.070;12.698;2022-11-15T15:22:00;9.80;1.00
14210;DHT22;7188;56.070;12.698;2022-11-15T15:24:25;9.80;1.00
14210;DHT22;7188;56.070;12.698;2022-11-15T15:26:51;9.80;1.00
14210;DHT22;7188;56.070;12.698;2022-11-15T15:29:16;9.80;1.00
14210;DHT22;7188;56.070;12.698;2022-11-15T15:31:42;9.80;99.90
14210;DHT22;7188;56.070;12.698;2022-11-15T15:34:08;9.80;1.00
14210;DHT22;7188;56.070;12.698;2022-11-15T15:36:33;9.60;1.00
14210;DHT22;7188;56.070;12.698;2022-11-15T15:38:59;9.60;24.40
14210;DHT22;7188;56.070;12.698;2022-11-15T15:41:25;9.50;99.90
14210;DHT22;7188;56.070;12.698;2022-11-15T15:43:50;9.50;99.90
14210;DHT22;7188;56.070;12.698;2022-11-15T15:46:18;9.40;99.90
14210;DHT22;7188;56.070;12.698;2022-11-15T15:48:44;9.30;99.90
14210;DHT22;7188;56.070;12.698;2022-11-15T15:51:10;9.30;1.00
14210;DHT22;7188;56.070;12.698;2022-11-15T15:53:37;9.20;1.00
14210;DHT22;7188;56.070;12.698;2022-11-15T15:56:03;9.10;1.00
14210;DHT22;7188;56.070;12.698;2022-11-15T15:58:29;9.10;1.00
14210;DHT22;7188;56.070;12.698;2022-11-15T16:00:55;9.10;1.00
14210;DHT22;7188;56.070;12.698;2022-11-15T16:03:20;9.10;1.00
14210;DHT22;7188;56.070;12.698;2022-11-15T16:05:46;9.00;1.00
14210;DHT22;7188;56.070;12.698;2022-11-15T16:08:22;8.90;1.00
14210;DHT22;7188;56.070;12.698;2022-11-15T16:10:48;8.90;1.00
14210;DHT22;7188;56.070;12.698;2022-11-15T16:13:14;8.90;1.00
14210;DHT22;7188;56.070;12.698;2022-11-15T16:15:40;9.00;1.00
14210;DHT22;7188;56.070;12.698;2022-11-15T16:18:14;8.90;1.00
14210;DHT22;7188;56.070;12.698;2022-11-15T16:20:44;8.90;1.00
14210;DHT22;7188;56.070;12.698;2022-11-15T16:23:15;8.90;1.00
14210;DHT22;7188;56.070;12.698;2022-11-15T16:25:42;8.90;1.00
14210;DHT22;7188;56.070;12.698;2022-11-15T16:28:31;8.90;1.00
14210;DHT22;7188;56.070;12.698;2022-11-15T16:31:01;8.80;11.90
14210;DHT22;7188;56.070;12.698;2022-11-15T16:33:27;8.80;31.30
14210;DHT22;7188;56.070;12.698;2022-11-15T16:35:53;8.80;35.00
14210;DHT22;7188;56.070;12.698;2022-11-15T16:38:18;8.80;59.50
14210;DHT22;7188;56.070;12.698;2022-11-15T16:40:44;8.80;56.60
14210;DHT22;7188;56.070;12.698;2022-11-15T16:43:10;8.80;53.90
14210;DHT22;7188;56.070;12.698;2022-11-15T16:45:36;8.70;36.40
14210;DHT22;7188;56.070;12.698;2022-11-15T16:48:02;8.70;44.50
14210;DHT22;7188;56.070;12.698;2022-11-15T16:50:30;8.70;78.30
14210;DHT22;7188;56.070;12.698;2022-11-15T16:52:58;8.70;55.60
14210;DHT22;7188;56.070;12.698;2022-11-15T16:55:28;8.70;61.20
14210;DHT22;7188;56.070;12.698;2022-11-15T16:57:55;8.60;25.60
14210;DHT22;7188;56.070;12.698;2022-11-15T17:00:23;8.60;48.20
14210;DHT22;7188;56.070;12.698;2022-11-15T17:02:49;8.60;49.80
14210;DHT22;7188;56.070;12.698;2022-11-15T17:05:18;8.60;33.40
14210;DHT22;7188;56.070;12.698;2022-11-15T17:07:46;8.60;18.90
14210;DHT22;7188;56.070;12.698;2022-11-15T17:10:13;8.60;7.80
14210;DHT22;7188;56.070;12.698;2022-11-15T17:12:39;8.60;1.00
14210;DHT22;7188;56.070;12.698;2022-11-15T17:15:05;8.60;1.00
14210;DHT22;7188;56.070;12.698;2022-11-15T17:17:31;8.60;1.00
14210;DHT22;7188;56.070;12.698;2022-11-15T17:19:57;8.60;1.00
14210;DHT22;7188;56.070;12.698;2022-11-15T17:22:22;8.60;1.00
14210;DHT22;7188;56.070;12.698;2022-11-15T17:24:48;8.60;1.00
14210;DHT22;7188;56.070;12.698;2022-11-15T17:27:14;8.60;1.00
14210;DHT22;7188;56.070;12.698;2022-11-15T17:29:40;8.60;1.00
14210;DHT22;7188;56.070;12.698;2022-11-15T17:32:07;8.60;1.00
14210;DHT22;7188;56.070;12.698;2022-11-15T17:34:33;8.60;1.00
14210;DHT22;7188;56.070;12.698;2022-11-15T17:36:58;8.60;1.00
14210;DHT22;7188;56.070;12.698;2022-11-15T17:39:24;8.60;1.00
14210;DHT22;7188;56.070;12.698;2022-11-15T17:41:50;8.60;1.00
14210;DHT22;7188;56.070;12.698;2022-11-15T17:44:16;8.70;1.00
14210;DHT22;7188;56.070;12.698;2022-11-15T17:46:42;8.70;1.00
14210;DHT22;7188;56.070;12.698;2022-11-15T17:49:08;8.70;1.00
14210;DHT22;7188;56.070;12.698;2022-11-15T17:51:33;8.60;1.00
14210;DHT22;7188;56.070;12.698;2022-11-15T17:53:59;8.70;1.00
14210;DHT22;7188;56.070;12.698;2022-11-15T17:56:26;8.70;1.00
14210;DHT22;7188;56.070;12.698;2022-11-15T17:58:54;8.70;1.00
14210;DHT22;7188;56.070;12.698;2022-11-15T18:01:26;8.70;1.00
14210;DHT22;7188;56.070;12.698;2022-11-15T18:03:52;8.60;1.00
14210;DHT22;7188;56.070;12.698;2022-11-15T18:06:20;8.70;1.00
14210;DHT22;7188;56.070;12.698;2022-11-15T18:08:47;8.70;1.00
14210;DHT22;7188;56.070;12.698;2022-11-15T18:11:19;8.70;1.00
14210;DHT22;7188;56.070;12.698;2022-11-15T18:13:49;8.70;1.00
14210;DHT22;7188;56.070;12.698;2022-11-15T18:16:35;8.70;1.00
14210;DHT22;7188;56.070;12.698;2022-11-15T18:19:02;8.70;1.00